sensor_id;sensor_type;location;lat;lon;timestamp;temperature;humidity
25332;DHT22;13284;52.748;13.452;2023-04-01T00:00:48;9.70;99.90
25332;DHT22;13284;52.748;13.452;2023-04-01T00:03:14;9.70;99.90
25332;DHT22;13284;52.748;13.452;2023-04-01T00:05:39;9.60;99.90
25332;DHT22;13284;52.748;13.452;2023-04-01T00:08:05;9.60;99.90
25332;DHT22;13284;52.748;13.452;2023-04-01T00:10:30;9.70;99.90
25332;DHT22;13284;52.748;13.452;2023-04-01T00:12:58;9.70;99.90
25332;DHT22;13284;52.748;13.452;2023-04-01T00:15:24;9.70;99.90
25332;DHT22;13284;52.748;13.452;2023-04-01T00:17:52;9.60;99.90
25332;DHT22;13284;52.748;13.452;2023-04-01T00:20:18;9.70;99.90
25332;DHT22;13284;52.748;13.452;2023-04-01T00:22:43;9.70;99.90
25332;DHT22;13284;52.748;13.452;2023-04-01T00:25:09;9.60;99.90
25332;DHT22;13284;52.748;13.452;2023-04-01T00:27:35;9.70;99.90
25332;DHT22;13284;52.748;13.452;2023-04-01T00:30:00;9.70;99.90
25332;DHT22;13284;52.748;13.452;2023-04-01T00:32:26;9.60;99.90
25332;DHT22;13284;52.748;13.452;2023-04-01T00:34:52;9.70;99.90
25332;DHT22;13284;52.748;13.452;2023-04-01T00:37:18;9.70;99.90
25332;DHT22;13284;52.748;13.452;2023-04-01T00:39:44;9.70;99.90
25332;DHT22;13284;52.748;13.452;2023-04-01T00:42:10;9.60;99.90
25332;DHT22;13284;52.748;13.452;2023-04-01T00:44:37;9.60;99.90
25332;DHT22;13284;52.748;13.452;2023-04-01T00:47:03;9.60;99.90
25332;DHT22;13284;52.748;13.452;2023-04-01T00:49:40;9.50;99.90
25332;DHT22;13284;52.748;13.452;2023-04-01T00:52:08;9.60;99.90
25332;DHT22;13284;52.748;13.452;2023-04-01T00:54:39;9.60;99.90
25332;DHT22;13284;52.748;13.452;2023-04-01T00:57:12;9.60;99.90
25332;DHT22;13284;52.748;13.452;2023-04-01T00:59:44;9.60;99.90
25332;DHT22;13284;52.748;13.452;2023-04-01T01:02:11;9.60;99.90
25332;DHT22;13284;52.748;13.452;2023-04-01T01:04:38;9.70;99.90
25332;DHT22;13284;52.748;13.452;2023-04-01T01:10:20;9.70;99.90
25332;DHT22;13284;52.748;13.452;2023-04-01T01:15:26;9.70;99.90
25332;DHT22;13284;52.748;13.452;2023-04-01T01:35:26;9.60;99.90
25332;DHT22;13284;52.748;13.452;2023-04-01T01:38:03;9.50;99.90
25332;DHT22;13284;52.748;13.452;2023-04-01T01:40:31;9.50;99.90
25332;DHT22;13284;52.748;13.452;2023-04-01T01:43:03;9.50;99.90
25332;DHT22;13284;52.748;13.452;2023-04-01T01:45:30;9.50;99.90
25332;DHT22;13284;52.748;13.452;2023-04-01T01:47:58;9.50;99.90
25332;DHT22;13284;52.748;13.452;2023-04-01T01:50:25;9.50;99.90
25332;DHT22;13284;52.748;13.452;2023-04-01T01:52:59;9.50;99.90
25332;DHT22;13284;52.748;13.452;2023-04-01T01:55:31;9.50;99.90
25332;DHT22;13284;52.748;13.452;2023-04-01T01:58:00;9.50;99.90
25332;DHT22;13284;52.748;13.452;2023-04-01T02:00:28;9.50;99.90
25332;DHT22;13284;52.748;13.452;2023-04-01T02:02:54;9.50;99.90
25332;DHT22;13284;52.748;13.452;2023-04-01T02:05:23;9.60;99.90
25332;DHT22;13284;52.748;13.452;2023-04-01T02:10:41;9.60;99.90
25332;DHT22;13284;52.748;13.452;2023-04-01T02:13:14;9.60;99.90
25332;DHT22;13284;52.748;13.452;2023-04-01T02:15:44;9.60;99.90
25332;DHT22;13284;52.748;13.452;2023-04-01T02:18:11;9.60;99.90
25332;DHT22;13284;52.748;13.452;2023-04-01T02:20:39;9.60;99.90
25332;DHT22;13284;52.748;13.452;2023-04-01T02:23:07;9.70;99.90
25332;DHT22;13284;52.748;13.452;2023-04-01T02:25:35;9.70;99.90
25332;DHT22;13284;52.748;13.452;2023-04-01T02:28:04;9.70;99.90
25332;DHT22;13284;52.748;13.452;2023-04-01T02:30:34;9.60;99.90
25332;DHT22;13284;52.748;13.452;2023-04-01T02:33:01;9.60;99.90
25332;DHT22;13284;52.748;13.452;2023-04-01T02:35:27;9.60;99.90
25332;DHT22;13284;52.748;13.452;2023-04-01T02:37:55;9.60;99.90
25332;DHT22;13284;52.748;13.452;2023-04-01T02:40:22;9.50;99.90
25332;DHT22;13284;52.748;13.452;2023-04-01T02:42:47;9.60;99.90
25332;DHT22;13284;52.748;13.452;2023-04-01T02:45:13;9.60;99.90
25332;DHT22;13284;52.748;13.452;2023-04-01T02:47:40;9.50;99.90
25332;DHT22;13284;52.748;13.452;2023-04-01T02:50:09;9.60;99.90
25332;DHT22;13284;52.748;13.452;2023-04-01T02:52:35;9.50;99.90
25332;DHT22;13284;52.748;13.452;2023-04-01T02:55:01;9.50;99.90
25332;DHT22;13284;52.748;13.452;2023-04-01T02:57:27;9.50;99.90
25332;DHT22;13284;52.748;13.452;2023-04-01T02:59:52;9.50;99.90
25332;DHT22;13284;52.748;13.452;2023-04-01T03:02:18;9.50;99.90
25332;DHT22;13284;52.748;13.452;2023-04-01T03:04:43;9.50;99.90
25332;DHT22;13284;52.748;13.452;2023-04-01T03:07:09;9.50;99.90
25332;DHT22;13284;52.748;13.452;2023-04-01T03:09:38;9.60;99.90
25332;DHT22;13284;52.748;13.452;2023-04-01T03:12:05;9.60;99.90
25332;DHT22;13284;52.748;13.452;2023-04-01T03:14:31;9.60;99.90
25332;DHT22;13284;52.748;13.452;2023-04-01T03:16:56;9.60;99.90
25332;DHT22;13284;52.748;13.452;2023-04-01T03:19:22;9.60;99.90
25332;DHT22;13284;52.748;13.452;2023-04-01T03:21:47;9.60;99.90
25332;DHT22;13284;52.748;13.452;2023-04-01T03:24:13;9.70;99.90
25332;DHT22;13284;52.748;13.452;2023-04-01T03:26:38;9.60;99.90
25332;DHT22;13284;52.748;13.452;2023-04-01T03:29:04;9.60;99.90
25332;DHT22;13284;52.748;13.452;2023-04-01T03:31:30;9.70;99.90
25332;DHT22;13284;52.748;13.452;2023-04-01T03:33:55;9.70;99.90
25332;DHT22;13284;52.748;13.452;2023-04-01T03:36:21;9.70;99.90
25332;DHT22;13284;52.748;13.452;2023-04-01T03:38:47;9.80;99.90
25332;DHT22;13284;52.748;13.452;2023-04-01T03:41:14;9.80;99.90
25332;DHT22;13284;52.748;13.452;2023-04-01T03:43:40;9.80;99.90
25332;DHT22;13284;52.748;13.452;2023-04-01T03:46:06;9.80;99.90
25332;DHT22;13284;52.748;13.452;2023-04-01T03:48:31;9.80;99.90
25332;DHT22;13284;52.748;13.452;2023-04-01T03:50:57;9.80;99.90
25332;DHT22;13284;52.748;13.452;2023-04-01T03:53:23;9.90;99.90
25332;DHT22;13284;52.748;13.452;2023-04-01T03:55:48;9.80;99.90
25332;DHT22;13284;52.748;13.452;2023-04-01T03:58:14;9.90;99.90
25332;DHT22;13284;52.748;13.452;2023-04-01T04:00:39;9.80;99.90
25332;DHT22;13284;52.748;13.452;2023-04-01T04:03:06;9.90;99.90
25332;DHT22;13284;52.748;13.452;2023-04-01T04:05:32;9.80;99.90
25332;DHT22;13284;52.748;13.452;2023-04-01T04:07:57;9.80;99.90
25332;DHT22;13284;52.748;13.452;2023-04-01T04:10:23;9.80;99.90
25332;DHT22;13284;52.748;13.452;2023-04-01T04:12:50;9.80;99.90
25332;DHT22;13284;52.748;13.452;2023-04-01T04:15:16;9.80;99.90
25332;DHT22;13284;52.748;13.452;2023-04-01T04:17:42;9.80;99.90
25332;DHT22;13284;52.748;13.452;2023-04-01T04:20:08;9.90;99.90
25332;DHT22;13284;52.748;13.452;2023-04-01T04:22:34;9.80;99.90
25332;DHT22;13284;52.748;13.452;2023-04-01T04:24:59;9.80;99.90
25332;DHT22;13284;52.748;13.452;2023-04-01T04:27:25;9.80;99.90
25332;DHT22;13284;52.748;13.452;2023-04-01T04:29:50;9.80;99.90
25332;DHT22;13284;52.748;13.452;2023-04-01T04:32:16;9.80;99.90
25332;DHT22;13284;52.748;13.452;2023-04-01T04:34:41;9.80;99.90
25332;DHT22;13284;52.748;13.452;2023-04-01T04:37:07;9.80;99.90
25332;DHT22;13284;52.748;13.452;2023-04-01T04:39:32;9.80;99.90
25332;DHT22;13284;52.748;13.452;2023-04-01T04:41:58;9.80;99.90
25332;DHT22;13284;52.748;13.452;2023-04-01T04:44:23;9.80;99.90
25332;DHT22;13284;52.748;13.452;2023-04-01T04:46:49;9.90;99.90
25332;DHT22;13284;52.748;13.452;2023-04-01T04:49:15;9.80;99.90
25332;DHT22;13284;52.748;13.452;2023-04-01T04:51:40;9.70;99.90
25332;DHT22;13284;52.748;13.452;2023-04-01T04:54:06;9.70;99.90
25332;DHT22;13284;52.748;13.452;2023-04-01T04:56:32;9.80;99.90
25332;DHT22;13284;52.748;13.452;2023-04-01T04:58:58;9.80;99.90
25332;DHT22;13284;52.748;13.452;2023-04-01T05:01:25;9.80;99.90
25332;DHT22;13284;52.748;13.452;2023-04-01T05:03:51;9.90;99.90
25332;DHT22;13284;52.748;13.452;2023-04-01T05:06:17;9.90;99.90
25332;DHT22;13284;52.748;13.452;2023-04-01T05:08:45;9.90;99.90
25332;DHT22;13284;52.748;13.452;2023-04-01T05:11:16;9.90;99.90
25332;DHT22;13284;52.748;13.452;2023-04-01T05:13:42;9.90;99.90
25332;DHT22;13284;52.748;13.452;2023-04-01T05:16:13;9.90;99.90
25332;DHT22;13284;52.748;13.452;2023-04-01T05:18:39;9.90;99.90
25332;DHT22;13284;52.748;13.452;2023-04-01T05:21:07;10.00;99.90
25332;DHT22;13284;52.748;13.452;2023-04-01T05:23:33;9.90;99.90
25332;DHT22;13284;52.748;13.452;2023-04-01T05:26:02;9.90;99.90
25332;DHT22;13284;52.748;13.452;2023-04-01T05:28:27;9.90;99.90
25332;DHT22;13284;52.748;13.452;2023-04-01T05:30:53;9.90;99.90
25332;DHT22;13284;52.748;13.452;2023-04-01T05:33:18;9.90;99.90
25332;DHT22;13284;52.748;13.452;2023-04-01T05:35:44;9.80;99.90
25332;DHT22;13284;52.748;13.452;2023-04-01T05:38:09;9.80;99.90
25332;DHT22;13284;52.748;13.452;2023-04-01T05:40:35;9.80;99.90
25332;DHT22;13284;52.748;13.452;2023-04-01T05:43:00;9.90;99.90
25332;DHT22;13284;52.748;13.452;2023-04-01T05:45:26;9.80;99.90
25332;DHT22;13284;52.748;13.452;2023-04-01T05:47:52;9.80;99.90
25332;DHT22;13284;52.748;13.452;2023-04-01T05:50:18;9.80;99.90
25332;DHT22;13284;52.748;13.452;2023-04-01T05:52:43;9.80;99.90
25332;DHT22;13284;52.748;13.452;2023-04-01T05:55:10;9.80;99.90
25332;DHT22;13284;52.748;13.452;2023-04-01T05:57:35;9.70;99.90
25332;DHT22;13284;52.748;13.452;2023-04-01T06:00:01;9.70;99.90
25332;DHT22;13284;52.748;13.452;2023-04-01T06:02:26;9.60;99.90
25332;DHT22;13284;52.748;13.452;2023-04-01T06:05:15;9.50;99.90
25332;DHT22;13284;52.748;13.452;2023-04-01T06:07:41;9.40;99.90
25332;DHT22;13284;52.748;13.452;2023-04-01T06:11:14;9.40;99.90
25332;DHT22;13284;52.748;13.452;2023-04-01T06:30:46;8.70;99.90
25332;DHT22;13284;52.748;13.452;2023-04-01T06:44:23;8.40;99.90
25332;DHT22;13284;52.748;13.452;2023-04-01T06:46:58;8.30;99.90
25332;DHT22;13284;52.748;13.452;2023-04-01T06:52:23;8.30;99.90
25332;DHT22;13284;52.748;13.452;2023-04-01T06:58:05;8.30;99.90
25332;DHT22;13284;52.748;13.452;2023-04-01T07:00:41;8.20;99.90
25332;DHT22;13284;52.748;13.452;2023-04-01T07:03:26;8.20;99.90
25332;DHT22;13284;52.748;13.452;2023-04-01T07:05:59;8.20;99.90
25332;DHT22;13284;52.748;13.452;2023-04-01T07:08:28;8.20;99.90
25332;DHT22;13284;52.748;13.452;2023-04-01T07:10:58;8.20;99.90
25332;DHT22;13284;52.748;13.452;2023-04-01T07:13:45;8.10;99.90
25332;DHT22;13284;52.748;13.452;2023-04-01T07:16:17;8.20;99.90
25332;DHT22;13284;52.748;13.452;2023-04-01T07:18:56;8.20;99.90
25332;DHT22;13284;52.748;13.452;2023-04-01T07:24:37;8.10;99.90
25332;DHT22;13284;52.748;13.452;2023-04-01T07:27:09;8.10;99.90
25332;DHT22;13284;52.748;13.452;2023-04-01T07:29:35;8.10;99.90
25332;DHT22;13284;52.748;13.452;2023-04-01T07:40:53;8.20;99.90
25332;DHT22;13284;52.748;13.452;2023-04-01T07:43:14;8.20;99.90
25332;DHT22;13284;52.748;13.452;2023-04-01T07:46:11;8.20;99.90
25332;DHT22;13284;52.748;13.452;2023-04-01T07:49:01;8.20;99.90
25332;DHT22;13284;52.748;13.452;2023-04-01T07:51:37;8.20;99.90
25332;DHT22;13284;52.748;13.452;2023-04-01T07:54:30;8.20;99.90
25332;DHT22;13284;52.748;13.452;2023-04-01T07:57:12;8.20;99.90
25332;DHT22;13284;52.748;13.452;2023-04-01T07:59:59;8.20;99.90
25332;DHT22;13284;52.748;13.452;2023-04-01T08:05:29;8.20;99.90
25332;DHT22;13284;52.748;13.452;2023-04-01T08:10:48;8.20;99.90
25332;DHT22;13284;52.748;13.452;2023-04-01T08:13:18;8.20;99.90
25332;DHT22;13284;52.748;13.452;2023-04-01T08:15:55;8.20;99.90
25332;DHT22;13284;52.748;13.452;2023-04-01T08:21:25;8.20;99.90
25332;DHT22;13284;52.748;13.452;2023-04-01T08:23:56;8.10;99.90
25332;DHT22;13284;52.748;13.452;2023-04-01T08:26:45;8.20;99.90
25332;DHT22;13284;52.748;13.452;2023-04-01T08:29:22;8.20;99.90
25332;DHT22;13284;52.748;13.452;2023-04-01T08:32:05;8.10;99.90
25332;DHT22;13284;52.748;13.452;2023-04-01T08:34:37;8.10;99.90
25332;DHT22;13284;52.748;13.452;2023-04-01T08:37:19;8.20;99.90
25332;DHT22;13284;52.748;13.452;2023-04-01T08:39:48;8.10;99.90
25332;DHT22;13284;52.748;13.452;2023-04-01T08:50:55;8.20;99.90
25332;DHT22;13284;52.748;13.452;2023-04-01T08:53:54;8.20;99.90
25332;DHT22;13284;52.748;13.452;2023-04-01T08:56:37;8.30;99.90
25332;DHT22;13284;52.748;13.452;2023-04-01T09:02:13;8.20;99.90
25332;DHT22;13284;52.748;13.452;2023-04-01T09:05:18;8.10;99.90
25332;DHT22;13284;52.748;13.452;2023-04-01T09:34:55;8.20;99.90
25332;DHT22;13284;52.748;13.452;2023-04-01T09:40:54;8.10;99.90
25332;DHT22;13284;52.748;13.452;2023-04-01T09:44:06;8.20;99.90
25332;DHT22;13284;52.748;13.452;2023-04-01T09:46:46;8.40;99.90
25332;DHT22;13284;52.748;13.452;2023-04-01T09:52:24;8.30;99.90
25332;DHT22;13284;52.748;13.452;2023-04-01T10:12:24;8.20;99.90
25332;DHT22;13284;52.748;13.452;2023-04-01T10:20:37;8.20;99.90
25332;DHT22;13284;52.748;13.452;2023-04-01T10:23:38;8.30;99.90
25332;DHT22;13284;52.748;13.452;2023-04-01T10:40:57;8.40;99.90
25332;DHT22;13284;52.748;13.452;2023-04-01T10:44:21;8.40;99.90
25332;DHT22;13284;52.748;13.452;2023-04-01T11:04:35;8.20;99.90
25332;DHT22;13284;52.748;13.452;2023-04-01T11:13:33;8.30;99.90
25332;DHT22;13284;52.748;13.452;2023-04-01T11:16:50;8.20;99.90
25332;DHT22;13284;52.748;13.452;2023-04-01T11:22:08;8.20;99.90
25332;DHT22;13284;52.748;13.452;2023-04-01T11:33:47;8.00;99.90
25332;DHT22;13284;52.748;13.452;2023-04-01T11:39:17;8.10;99.90
25332;DHT22;13284;52.748;13.452;2023-04-01T11:42:05;8.00;99.90
25332;DHT22;13284;52.748;13.452;2023-04-01T11:44:35;8.10;99.90
25332;DHT22;13284;52.748;13.452;2023-04-01T11:53:17;8.00;99.90
25332;DHT22;13284;52.748;13.452;2023-04-01T11:59:19;8.20;99.90
25332;DHT22;13284;52.748;13.452;2023-04-01T12:04:49;8.20;99.90
25332;DHT22;13284;52.748;13.452;2023-04-01T12:10:26;8.00;99.90
25332;DHT22;13284;52.748;13.452;2023-04-01T12:16:11;8.00;99.90
25332;DHT22;13284;52.748;13.452;2023-04-01T12:18:46;7.90;99.90
25332;DHT22;13284;52.748;13.452;2023-04-01T12:21:36;7.80;99.90
25332;DHT22;13284;52.748;13.452;2023-04-01T12:30:01;7.90;99.90
25332;DHT22;13284;52.748;13.452;2023-04-01T12:40:40;8.00;99.90
25332;DHT22;13284;52.748;13.452;2023-04-01T12:45:49;8.00;99.90
25332;DHT22;13284;52.748;13.452;2023-04-01T12:48:57;8.00;99.90
25332;DHT22;13284;52.748;13.452;2023-04-01T12:51:46;7.90;99.90
25332;DHT22;13284;52.748;13.452;2023-04-01T12:57:19;7.90;99.90
25332;DHT22;13284;52.748;13.452;2023-04-01T13:14:09;7.80;99.90
25332;DHT22;13284;52.748;13.452;2023-04-01T13:16:53;7.90;99.90
25332;DHT22;13284;52.748;13.452;2023-04-01T13:24:54;7.60;99.90
25332;DHT22;13284;52.748;13.452;2023-04-01T13:27:34;7.50;99.90
25332;DHT22;13284;52.748;13.452;2023-04-01T13:30:30;7.50;99.90
25332;DHT22;13284;52.748;13.452;2023-04-01T13:33:04;7.70;99.90
25332;DHT22;13284;52.748;13.452;2023-04-01T13:41:18;7.80;99.90
25332;DHT22;13284;52.748;13.452;2023-04-01T13:47:11;7.70;99.90
25332;DHT22;13284;52.748;13.452;2023-04-01T13:53:15;7.50;99.90
25332;DHT22;13284;52.748;13.452;2023-04-01T13:56:16;7.40;99.90
25332;DHT22;13284;52.748;13.452;2023-04-01T14:01:42;7.30;99.90
25332;DHT22;13284;52.748;13.452;2023-04-01T14:04:23;7.40;99.90
25332;DHT22;13284;52.748;13.452;2023-04-01T14:13:01;7.20;99.90
25332;DHT22;13284;52.748;13.452;2023-04-01T14:15:47;7.20;99.90
25332;DHT22;13284;52.748;13.452;2023-04-01T14:23:53;7.00;99.90
25332;DHT22;13284;52.748;13.452;2023-04-01T14:29:11;7.00;99.90
25332;DHT22;13284;52.748;13.452;2023-04-01T14:40:27;7.10;99.90
25332;DHT22;13284;52.748;13.452;2023-04-01T14:45:55;7.00;99.90
25332;DHT22;13284;52.748;13.452;2023-04-01T14:51:20;6.90;99.90
25332;DHT22;13284;52.748;13.452;2023-04-01T14:59:26;6.80;99.90
25332;DHT22;13284;52.748;13.452;2023-04-01T15:01:57;6.70;99.90
25332;DHT22;13284;52.748;13.452;2023-04-01T15:07:20;6.60;99.90
25332;DHT22;13284;52.748;13.452;2023-04-01T15:12:30;6.60;99.90
25332;DHT22;13284;52.748;13.452;2023-04-01T15:15:24;6.50;99.90
25332;DHT22;13284;52.748;13.452;2023-04-01T15:20:44;6.40;99.90
25332;DHT22;13284;52.748;13.452;2023-04-01T15:23:27;6.40;99.90
25332;DHT22;13284;52.748;13.452;2023-04-01T15:26:19;6.40;99.90
25332;DHT22;13284;52.748;13.452;2023-04-01T15:43:03;6.30;99.90
25332;DHT22;13284;52.748;13.452;2023-04-01T15:45:41;6.30;99.90
25332;DHT22;13284;52.748;13.452;2023-04-01T16:05:23;6.00;99.90
25332;DHT22;13284;52.748;13.452;2023-04-01T16:10:57;6.00;99.90
25332;DHT22;13284;52.748;13.452;2023-04-01T16:17:08;6.00;99.90
25332;DHT22;13284;52.748;13.452;2023-04-01T16:20:02;6.00;99.90
25332;DHT22;13284;52.748;13.452;2023-04-01T16:29:02;5.90;99.90
25332;DHT22;13284;52.748;13.452;2023-04-01T16:31:53;5.90;99.90
25332;DHT22;13284;52.748;13.452;2023-04-01T16:34:30;5.90;99.90
25332;DHT22;13284;52.748;13.452;2023-04-01T16:37:17;5.80;99.90
25332;DHT22;13284;52.748;13.452;2023-04-01T16:39:53;5.80;99.90
25332;DHT22;13284;52.748;13.452;2023-04-01T16:42:43;5.80;99.90
25332;DHT22;13284;52.748;13.452;2023-04-01T16:51:01;5.70;99.90
25332;DHT22;13284;52.748;13.452;2023-04-01T16:53:45;5.60;99.90
25332;DHT22;13284;52.748;13.452;2023-04-01T16:56:23;5.60;99.90
25332;DHT22;13284;52.748;13.452;2023-04-01T16:59:13;5.60;99.90
25332;DHT22;13284;52.748;13.452;2023-04-01T17:01:55;5.60;99.90
25332;DHT22;13284;52.748;13.452;2023-04-01T17:18:59;5.30;99.90
25332;DHT22;13284;52.748;13.452;2023-04-01T17:24:46;5.30;99.90
25332;DHT22;13284;52.748;13.452;2023-04-01T17:35:53;5.20;99.90
25332;DHT22;13284;52.748;13.452;2023-04-01T17:38:48;5.20;99.90
25332;DHT22;13284;52.748;13.452;2023-04-01T17:44:29;5.20;99.90
25332;DHT22;13284;52.748;13.452;2023-04-01T17:49:42;5.00;99.90
25332;DHT22;13284;52.748;13.452;2023-04-01T18:04:36;4.90;99.90
25332;DHT22;13284;52.748;13.452;2023-04-01T18:12:56;4.90;99.90
25332;DHT22;13284;52.748;13.452;2023-04-01T18:18:18;4.80;99.90
25332;DHT22;13284;52.748;13.452;2023-04-01T18:21:04;4.90;99.90
25332;DHT22;13284;52.748;13.452;2023-04-01T18:23:50;4.70;99.90
25332;DHT22;13284;52.748;13.452;2023-04-01T18:29:03;4.70;99.90
25332;DHT22;13284;52.748;13.452;2023-04-01T18:31:40;4.60;99.90
25332;DHT22;13284;52.748;13.452;2023-04-01T18:34:25;4.60;99.90
25332;DHT22;13284;52.748;13.452;2023-04-01T18:36:59;4.60;99.90
25332;DHT22;13284;52.748;13.452;2023-04-01T18:39:36;4.60;99.90
25332;DHT22;13284;52.748;13.452;2023-04-01T18:46:08;4.50;99.90
25332;DHT22;13284;52.748;13.452;2023-04-01T18:48:33;4.50;99.90
25332;DHT22;13284;52.748;13.452;2023-04-01T18:54:27;4.60;99.90
25332;DHT22;13284;52.748;13.452;2023-04-01T18:57:12;4.50;99.90
25332;DHT22;13284;52.748;13.452;2023-04-01T18:59:42;4.50;99.90
25332;DHT22;13284;52.748;13.452;2023-04-01T19:02:29;4.50;99.90
25332;DHT22;13284;52.748;13.452;2023-04-01T19:07:50;4.50;99.90
25332;DHT22;13284;52.748;13.452;2023-04-01T19:13:28;4.40;99.90
25332;DHT22;13284;52.748;13.452;2023-04-01T19:19:08;4.40;99.90
25332;DHT22;13284;52.748;13.452;2023-04-01T19:21:58;4.30;99.90
25332;DHT22;13284;52.748;13.452;2023-04-01T19:27:42;4.30;99.90
25332;DHT22;13284;52.748;13.452;2023-04-01T19:30:19;4.30;99.90
25332;DHT22;13284;52.748;13.452;2023-04-01T19:35:42;4.30;99.90
25332;DHT22;13284;52.748;13.452;2023-04-01T19:44:23;4.20;99.90
25332;DHT22;13284;52.748;13.452;2023-04-01T19:52:43;4.10;99.90
25332;DHT22;13284;52.748;13.452;2023-04-01T19:55:36;4.10;99.90
25332;DHT22;13284;52.748;13.452;2023-04-01T19:58:31;4.10;99.90
25332;DHT22;13284;52.748;13.452;2023-04-01T20:00:59;4.10;99.90
25332;DHT22;13284;52.748;13.452;2023-04-01T20:04:00;4.10;99.90
25332;DHT22;13284;52.748;13.452;2023-04-01T20:06:18;4.10;99.90
25332;DHT22;13284;52.748;13.452;2023-04-01T20:09:07;4.10;99.90
25332;DHT22;13284;52.748;13.452;2023-04-01T20:19:11;4.00;99.90
25332;DHT22;13284;52.748;13.452;2023-04-01T20:21:46;4.00;99.90
25332;DHT22;13284;52.748;13.452;2023-04-01T20:24:24;4.00;99.90
25332;DHT22;13284;52.748;13.452;2023-04-01T20:35:39;3.90;99.90
25332;DHT22;13284;52.748;13.452;2023-04-01T20:41:28;3.90;99.90
25332;DHT22;13284;52.748;13.452;2023-04-01T20:44:11;3.90;99.90
25332;DHT22;13284;52.748;13.452;2023-04-01T20:47:06;3.90;99.90
25332;DHT22;13284;52.748;13.452;2023-04-01T20:55:19;3.70;99.90
25332;DHT22;13284;52.748;13.452;2023-04-01T20:58:09;3.80;99.90
25332;DHT22;13284;52.748;13.452;2023-04-01T21:06:59;3.70;99.90
25332;DHT22;13284;52.748;13.452;2023-04-01T21:09:41;3.70;99.90
25332;DHT22;13284;52.748;13.452;2023-04-01T21:24:28;3.60;99.90
25332;DHT22;13284;52.748;13.452;2023-04-01T21:27:10;3.70;99.90
25332;DHT22;13284;52.748;13.452;2023-04-01T21:29:51;3.70;99.90
25332;DHT22;13284;52.748;13.452;2023-04-01T21:35:23;3.60;99.90
25332;DHT22;13284;52.748;13.452;2023-04-01T21:38:05;3.60;99.90
25332;DHT22;13284;52.748;13.452;2023-04-01T21:43:28;3.70;99.90
25332;DHT22;13284;52.748;13.452;2023-04-01T21:48:48;3.70;99.90
25332;DHT22;13284;52.748;13.452;2023-04-01T21:51:38;3.60;99.90
25332;DHT22;13284;52.748;13.452;2023-04-01T22:00:01;3.70;99.90
25332;DHT22;13284;52.748;13.452;2023-04-01T22:05:37;3.60;99.90
25332;DHT22;13284;52.748;13.452;2023-04-01T22:08:30;3.60;99.90
25332;DHT22;13284;52.748;13.452;2023-04-01T22:19:11;3.60;99.90
25332;DHT22;13284;52.748;13.452;2023-04-01T22:21:45;3.60;99.90
25332;DHT22;13284;52.748;13.452;2023-04-01T22:24:29;3.50;99.90
25332;DHT22;13284;52.748;13.452;2023-04-01T22:27:18;3.60;99.90
25332;DHT22;13284;52.748;13.452;2023-04-01T22:30:04;3.50;99.90
25332;DHT22;13284;52.748;13.452;2023-04-01T22:32:40;3.50;99.90
25332;DHT22;13284;52.748;13.452;2023-04-01T22:35:34;3.50;99.90
25332;DHT22;13284;52.748;13.452;2023-04-01T22:38:14;3.50;99.90
25332;DHT22;13284;52.748;13.452;2023-04-01T22:43:16;3.50;99.90
25332;DHT22;13284;52.748;13.452;2023-04-01T22:53:17;3.50;99.90
25332;DHT22;13284;52.748;13.452;2023-04-01T22:55:48;3.40;99.90
25332;DHT22;13284;52.748;13.452;2023-04-01T22:58:21;3.40;99.90
25332;DHT22;13284;52.748;13.452;2023-04-01T23:01:06;3.40;99.90
25332;DHT22;13284;52.748;13.452;2023-04-01T23:03:39;3.40;99.90
25332;DHT22;13284;52.748;13.452;2023-04-01T23:06:06;3.40;99.90
25332;DHT22;13284;52.748;13.452;2023-04-01T23:11:46;3.40;99.90
25332;DHT22;13284;52.748;13.452;2023-04-01T23:17:07;3.40;99.90
25332;DHT22;13284;52.748;13.452;2023-04-01T23:19:41;3.40;99.90
25332;DHT22;13284;52.748;13.452;2023-04-01T23:22:26;3.40;99.90
25332;DHT22;13284;52.748;13.452;2023-04-01T23:24:59;3.40;99.90
25332;DHT22;13284;52.748;13.452;2023-04-01T23:27:44;3.40;99.90
25332;DHT22;13284;52.748;13.452;2023-04-01T23:35:59;3.40;99.90
25332;DHT22;13284;52.748;13.452;2023-04-01T23:38:41;3.40;99.90
25332;DHT22;13284;52.748;13.452;2023-04-01T23:41:16;3.30;99.90
25332;DHT22;13284;52.748;13.452;2023-04-01T23:43:43;3.30;99.90
25332;DHT22;13284;52.748;13.452;2023-04-01T23:46:11;3.40;99.90
25332;DHT22;13284;52.748;13.452;2023-04-01T23:48:43;3.30;99.90
25332;DHT22;13284;52.748;13.452;2023-04-01T23:51:17;3.40;99.90
25332;DHT22;13284;52.748;13.452;2023-04-01T23:53:48;3.40;99.90
25332;DHT22;13284;52.748;13.452;2023-04-01T23:56:21;3.40;99.90
25332;DHT22;13284;52.748;13.452;2023-04-01T23:58:52;3.40;99.90
